sensor_id;sensor_type;location;lat;lon;timestamp;P1;durP1;ratioP1;P2;durP2;ratioP2
20340;SDS011;10328;50.042;8.238;2022-09-09T00:00:49;6.40;;;2.00;;
20340;SDS011;10328;50.042;8.238;2022-09-09T00:03:25;4.38;;;2.13;;
20340;SDS011;10328;50.042;8.238;2022-09-09T00:06:02;4.13;;;2.00;;
20340;SDS011;10328;50.042;8.238;2022-09-09T00:08:45;3.03;;;1.90;;
20340;SDS011;10328;50.042;8.238;2022-09-09T00:11:24;5.40;;;2.05;;
20340;SDS011;10328;50.042;8.238;2022-09-09T00:13:57;5.07;;;2.13;;
20340;SDS011;10328;50.042;8.238;2022-09-09T00:16:27;4.25;;;2.05;;
20340;SDS011;10328;50.042;8.238;2022-09-09T00:19:00;4.90;;;1.90;;
20340;SDS011;10328;50.042;8.238;2022-09-09T00:21:34;7.07;;;3.25;;
20340;SDS011;10328;50.042;8.238;2022-09-09T00:24:15;4.80;;;2.80;;
20340;SDS011;10328;50.042;8.238;2022-09-09T00:26:56;5.37;;;2.80;;
20340;SDS011;10328;50.042;8.238;2022-09-09T00:29:36;3.92;;;2.25;;
20340;SDS011;10328;50.042;8.238;2022-09-09T00:32:16;3.90;;;2.33;;
20340;SDS011;10328;50.042;8.238;2022-09-09T00:34:47;4.32;;;2.15;;
20340;SDS011;10328;50.042;8.238;2022-09-09T00:37:18;7.03;;;1.90;;
20340;SDS011;10328;50.042;8.238;2022-09-09T00:39:46;5.72;;;1.85;;
20340;SDS011;10328;50.042;8.238;2022-09-09T00:42:32;3.73;;;2.13;;
20340;SDS011;10328;50.042;8.238;2022-09-09T00:53:02;4.15;;;1.77;;
20340;SDS011;10328;50.042;8.238;2022-09-09T00:55:41;3.30;;;2.33;;
20340;SDS011;10328;50.042;8.238;2022-09-09T00:58:11;3.10;;;1.83;;
20340;SDS011;10328;50.042;8.238;2022-09-09T01:00:45;6.65;;;2.75;;
20340;SDS011;10328;50.042;8.238;2022-09-09T01:06:13;2.67;;;1.90;;
20340;SDS011;10328;50.042;8.238;2022-09-09T01:11:32;3.47;;;1.60;;
20340;SDS011;10328;50.042;8.238;2022-09-09T01:14:10;5.15;;;1.80;;
20340;SDS011;10328;50.042;8.238;2022-09-09T01:16:40;2.97;;;1.70;;
20340;SDS011;10328;50.042;8.238;2022-09-09T01:19:08;3.13;;;1.70;;
20340;SDS011;10328;50.042;8.238;2022-09-09T01:24:22;3.37;;;1.80;;
20340;SDS011;10328;50.042;8.238;2022-09-09T01:26:54;2.73;;;1.70;;
20340;SDS011;10328;50.042;8.238;2022-09-09T01:29:23;2.92;;;1.65;;
20340;SDS011;10328;50.042;8.238;2022-09-09T01:31:53;4.33;;;1.90;;
20340;SDS011;10328;50.042;8.238;2022-09-09T01:34:22;3.72;;;1.70;;
20340;SDS011;10328;50.042;8.238;2022-09-09T01:36:53;2.85;;;1.67;;
20340;SDS011;10328;50.042;8.238;2022-09-09T01:39:33;3.17;;;1.90;;
20340;SDS011;10328;50.042;8.238;2022-09-09T01:42:00;3.03;;;1.77;;
20340;SDS011;10328;50.042;8.238;2022-09-09T01:44:27;3.30;;;1.60;;
20340;SDS011;10328;50.042;8.238;2022-09-09T01:46:54;3.55;;;1.60;;
20340;SDS011;10328;50.042;8.238;2022-09-09T01:49:20;3.97;;;1.77;;
20340;SDS011;10328;50.042;8.238;2022-09-09T01:51:51;4.03;;;1.80;;
20340;SDS011;10328;50.042;8.238;2022-09-09T01:54:20;4.43;;;1.60;;
20340;SDS011;10328;50.042;8.238;2022-09-09T01:56:50;3.80;;;1.80;;
20340;SDS011;10328;50.042;8.238;2022-09-09T02:07:02;2.70;;;1.40;;
20340;SDS011;10328;50.042;8.238;2022-09-09T02:09:29;3.97;;;1.40;;
20340;SDS011;10328;50.042;8.238;2022-09-09T02:11:59;5.47;;;1.77;;
20340;SDS011;10328;50.042;8.238;2022-09-09T02:14:36;1.73;;;1.50;;
20340;SDS011;10328;50.042;8.238;2022-09-09T02:17:10;3.97;;;1.50;;
20340;SDS011;10328;50.042;8.238;2022-09-09T02:19:39;4.40;;;1.70;;
20340;SDS011;10328;50.042;8.238;2022-09-09T02:22:08;2.70;;;1.33;;
20340;SDS011;10328;50.042;8.238;2022-09-09T02:24:36;2.70;;;1.60;;
20340;SDS011;10328;50.042;8.238;2022-09-09T02:27:06;2.13;;;1.20;;
20340;SDS011;10328;50.042;8.238;2022-09-09T02:29:36;4.57;;;1.40;;
20340;SDS011;10328;50.042;8.238;2022-09-09T02:32:09;2.13;;;1.20;;
20340;SDS011;10328;50.042;8.238;2022-09-09T02:34:51;2.70;;;1.20;;
20340;SDS011;10328;50.042;8.238;2022-09-09T02:37:20;10.43;;;1.50;;
20340;SDS011;10328;50.042;8.238;2022-09-09T02:39:48;2.08;;;1.20;;
20340;SDS011;10328;50.042;8.238;2022-09-09T02:42:14;2.47;;;1.33;;
20340;SDS011;10328;50.042;8.238;2022-09-09T02:44:41;3.05;;;1.35;;
20340;SDS011;10328;50.042;8.238;2022-09-09T02:55:45;2.00;;;1.33;;
20340;SDS011;10328;50.042;8.238;2022-09-09T02:58:15;2.70;;;1.50;;
20340;SDS011;10328;50.042;8.238;2022-09-09T03:00:43;2.30;;;1.25;;
20340;SDS011;10328;50.042;8.238;2022-09-09T03:03:11;2.50;;;1.30;;
20340;SDS011;10328;50.042;8.238;2022-09-09T03:05:37;3.13;;;1.20;;
20340;SDS011;10328;50.042;8.238;2022-09-09T03:08:04;2.33;;;1.08;;
20340;SDS011;10328;50.042;8.238;2022-09-09T03:10:32;2.63;;;1.20;;
20340;SDS011;10328;50.042;8.238;2022-09-09T03:12:58;2.50;;;1.23;;
20340;SDS011;10328;50.042;8.238;2022-09-09T03:15:25;4.27;;;1.37;;
20340;SDS011;10328;50.042;8.238;2022-09-09T03:17:55;7.33;;;1.50;;
20340;SDS011;10328;50.042;8.238;2022-09-09T03:20:23;1.52;;;1.10;;
20340;SDS011;10328;50.042;8.238;2022-09-09T03:22:55;2.10;;;1.38;;
20340;SDS011;10328;50.042;8.238;2022-09-09T03:25:22;2.13;;;1.08;;
20340;SDS011;10328;50.042;8.238;2022-09-09T03:27:52;3.75;;;1.10;;
20340;SDS011;10328;50.042;8.238;2022-09-09T03:30:21;2.53;;;1.17;;
20340;SDS011;10328;50.042;8.238;2022-09-09T03:32:50;2.80;;;1.38;;
20340;SDS011;10328;50.042;8.238;2022-09-09T03:35:17;3.57;;;1.30;;
20340;SDS011;10328;50.042;8.238;2022-09-09T03:37:44;4.82;;;1.33;;
20340;SDS011;10328;50.042;8.238;2022-09-09T03:40:10;3.70;;;1.13;;
20340;SDS011;10328;50.042;8.238;2022-09-09T03:42:38;3.00;;;1.40;;
20340;SDS011;10328;50.042;8.238;2022-09-09T03:45:05;3.33;;;1.30;;
20340;SDS011;10328;50.042;8.238;2022-09-09T03:47:32;3.87;;;1.20;;
20340;SDS011;10328;50.042;8.238;2022-09-09T03:49:59;1.97;;;1.20;;
20340;SDS011;10328;50.042;8.238;2022-09-09T03:52:25;1.73;;;1.30;;
20340;SDS011;10328;50.042;8.238;2022-09-09T03:54:52;2.72;;;1.40;;
20340;SDS011;10328;50.042;8.238;2022-09-09T03:57:19;3.58;;;1.30;;
20340;SDS011;10328;50.042;8.238;2022-09-09T03:59:46;3.17;;;1.40;;
20340;SDS011;10328;50.042;8.238;2022-09-09T04:02:12;2.87;;;1.60;;
20340;SDS011;10328;50.042;8.238;2022-09-09T04:04:38;6.37;;;1.40;;
20340;SDS011;10328;50.042;8.238;2022-09-09T04:07:05;2.88;;;1.33;;
20340;SDS011;10328;50.042;8.238;2022-09-09T04:09:34;3.83;;;1.43;;
20340;SDS011;10328;50.042;8.238;2022-09-09T04:12:00;3.83;;;1.47;;
20340;SDS011;10328;50.042;8.238;2022-09-09T04:14:27;3.58;;;1.40;;
20340;SDS011;10328;50.042;8.238;2022-09-09T04:16:54;3.33;;;1.50;;
20340;SDS011;10328;50.042;8.238;2022-09-09T04:19:23;4.77;;;1.87;;
20340;SDS011;10328;50.042;8.238;2022-09-09T04:21:49;3.70;;;1.50;;
20340;SDS011;10328;50.042;8.238;2022-09-09T04:24:17;5.10;;;1.40;;
20340;SDS011;10328;50.042;8.238;2022-09-09T04:26:44;3.17;;;1.47;;
20340;SDS011;10328;50.042;8.238;2022-09-09T04:29:11;2.80;;;1.40;;
20340;SDS011;10328;50.042;8.238;2022-09-09T04:31:37;2.00;;;1.33;;
20340;SDS011;10328;50.042;8.238;2022-09-09T04:34:08;6.88;;;2.05;;
20340;SDS011;10328;50.042;8.238;2022-09-09T04:36:35;4.17;;;1.73;;
20340;SDS011;10328;50.042;8.238;2022-09-09T04:39:02;3.27;;;1.60;;
20340;SDS011;10328;50.042;8.238;2022-09-09T04:41:28;3.50;;;1.30;;
20340;SDS011;10328;50.042;8.238;2022-09-09T04:43:55;4.73;;;2.07;;
20340;SDS011;10328;50.042;8.238;2022-09-09T04:46:22;4.13;;;1.40;;
20340;SDS011;10328;50.042;8.238;2022-09-09T04:48:49;2.35;;;1.23;;
20340;SDS011;10328;50.042;8.238;2022-09-09T04:51:16;2.10;;;1.33;;
20340;SDS011;10328;50.042;8.238;2022-09-09T04:53:42;2.70;;;1.20;;
20340;SDS011;10328;50.042;8.238;2022-09-09T04:56:10;2.97;;;1.40;;
20340;SDS011;10328;50.042;8.238;2022-09-09T04:58:38;2.78;;;1.13;;
20340;SDS011;10328;50.042;8.238;2022-09-09T05:01:06;3.07;;;1.73;;
20340;SDS011;10328;50.042;8.238;2022-09-09T05:03:34;2.23;;;1.10;;
20340;SDS011;10328;50.042;8.238;2022-09-09T05:06:19;2.17;;;1.20;;
20340;SDS011;10328;50.042;8.238;2022-09-09T05:08:46;3.73;;;1.30;;
20340;SDS011;10328;50.042;8.238;2022-09-09T05:11:23;4.27;;;1.50;;
20340;SDS011;10328;50.042;8.238;2022-09-09T05:13:52;1.97;;;1.27;;
20340;SDS011;10328;50.042;8.238;2022-09-09T05:16:19;2.07;;;1.17;;
20340;SDS011;10328;50.042;8.238;2022-09-09T05:18:46;3.27;;;1.40;;
20340;SDS011;10328;50.042;8.238;2022-09-09T05:21:13;3.57;;;1.47;;
20340;SDS011;10328;50.042;8.238;2022-09-09T05:23:40;5.00;;;1.33;;
20340;SDS011;10328;50.042;8.238;2022-09-09T05:26:07;2.20;;;1.10;;
20340;SDS011;10328;50.042;8.238;2022-09-09T05:28:42;1.60;;;1.00;;
20340;SDS011;10328;50.042;8.238;2022-09-09T05:31:09;2.63;;;0.93;;
20340;SDS011;10328;50.042;8.238;2022-09-09T05:33:37;4.10;;;1.10;;
20340;SDS011;10328;50.042;8.238;2022-09-09T05:36:07;4.10;;;1.10;;
20340;SDS011;10328;50.042;8.238;2022-09-09T05:38:35;3.20;;;1.20;;
20340;SDS011;10328;50.042;8.238;2022-09-09T05:41:02;6.47;;;1.25;;
20340;SDS011;10328;50.042;8.238;2022-09-09T05:43:29;2.43;;;1.03;;
20340;SDS011;10328;50.042;8.238;2022-09-09T05:45:59;2.67;;;1.10;;
20340;SDS011;10328;50.042;8.238;2022-09-09T05:48:28;4.37;;;1.43;;
20340;SDS011;10328;50.042;8.238;2022-09-09T05:50:55;4.03;;;1.23;;
20340;SDS011;10328;50.042;8.238;2022-09-09T05:53:22;4.83;;;1.40;;
20340;SDS011;10328;50.042;8.238;2022-09-09T05:55:48;3.57;;;1.20;;
20340;SDS011;10328;50.042;8.238;2022-09-09T05:58:14;3.03;;;1.37;;
20340;SDS011;10328;50.042;8.238;2022-09-09T06:00:42;3.78;;;1.25;;
20340;SDS011;10328;50.042;8.238;2022-09-09T06:03:11;3.43;;;1.60;;
20340;SDS011;10328;50.042;8.238;2022-09-09T06:05:37;3.40;;;1.40;;
20340;SDS011;10328;50.042;8.238;2022-09-09T06:08:04;2.67;;;1.43;;
20340;SDS011;10328;50.042;8.238;2022-09-09T06:10:30;3.20;;;1.40;;
20340;SDS011;10328;50.042;8.238;2022-09-09T06:12:57;6.45;;;1.45;;
20340;SDS011;10328;50.042;8.238;2022-09-09T06:15:23;3.70;;;1.10;;
20340;SDS011;10328;50.042;8.238;2022-09-09T06:17:53;2.43;;;1.20;;
20340;SDS011;10328;50.042;8.238;2022-09-09T06:20:21;2.35;;;1.15;;
20340;SDS011;10328;50.042;8.238;2022-09-09T06:22:47;3.13;;;1.02;;
20340;SDS011;10328;50.042;8.238;2022-09-09T06:25:14;3.83;;;1.50;;
20340;SDS011;10328;50.042;8.238;2022-09-09T06:27:40;3.33;;;1.50;;
20340;SDS011;10328;50.042;8.238;2022-09-09T06:30:08;3.00;;;1.15;;
20340;SDS011;10328;50.042;8.238;2022-09-09T06:32:35;2.40;;;1.13;;
20340;SDS011;10328;50.042;8.238;2022-09-09T06:35:03;3.17;;;1.30;;
20340;SDS011;10328;50.042;8.238;2022-09-09T06:37:30;5.18;;;1.40;;
20340;SDS011;10328;50.042;8.238;2022-09-09T06:39:57;2.70;;;1.17;;
20340;SDS011;10328;50.042;8.238;2022-09-09T06:42:23;2.47;;;1.30;;
20340;SDS011;10328;50.042;8.238;2022-09-09T06:44:49;2.17;;;1.27;;
20340;SDS011;10328;50.042;8.238;2022-09-09T06:47:16;3.42;;;1.00;;
20340;SDS011;10328;50.042;8.238;2022-09-09T06:49:42;3.75;;;1.45;;
20340;SDS011;10328;50.042;8.238;2022-09-09T06:52:13;3.72;;;1.15;;
20340;SDS011;10328;50.042;8.238;2022-09-09T06:54:39;2.50;;;1.23;;
20340;SDS011;10328;50.042;8.238;2022-09-09T06:57:06;3.25;;;1.00;;
20340;SDS011;10328;50.042;8.238;2022-09-09T06:59:53;1.27;;;0.90;;
20340;SDS011;10328;50.042;8.238;2022-09-09T07:02:19;2.80;;;1.20;;
20340;SDS011;10328;50.042;8.238;2022-09-09T07:04:46;7.03;;;1.30;;
20340;SDS011;10328;50.042;8.238;2022-09-09T07:07:12;3.92;;;1.50;;
20340;SDS011;10328;50.042;8.238;2022-09-09T07:09:41;4.28;;;1.30;;
20340;SDS011;10328;50.042;8.238;2022-09-09T07:12:07;3.20;;;1.50;;
20340;SDS011;10328;50.042;8.238;2022-09-09T07:14:33;5.35;;;1.48;;
20340;SDS011;10328;50.042;8.238;2022-09-09T07:17:02;6.82;;;1.63;;
20340;SDS011;10328;50.042;8.238;2022-09-09T07:19:28;2.50;;;1.27;;
20340;SDS011;10328;50.042;8.238;2022-09-09T07:21:54;6.47;;;1.67;;
20340;SDS011;10328;50.042;8.238;2022-09-09T07:24:21;4.72;;;1.20;;
20340;SDS011;10328;50.042;8.238;2022-09-09T07:26:47;5.72;;;1.20;;
20340;SDS011;10328;50.042;8.238;2022-09-09T07:29:13;7.05;;;1.65;;
20340;SDS011;10328;50.042;8.238;2022-09-09T07:31:45;4.13;;;1.65;;
20340;SDS011;10328;50.042;8.238;2022-09-09T07:34:11;3.28;;;1.27;;
20340;SDS011;10328;50.042;8.238;2022-09-09T07:36:38;4.20;;;1.65;;
20340;SDS011;10328;50.042;8.238;2022-09-09T07:39:06;5.97;;;1.90;;
20340;SDS011;10328;50.042;8.238;2022-09-09T07:41:36;4.38;;;1.60;;
20340;SDS011;10328;50.042;8.238;2022-09-09T07:44:11;7.90;;;1.80;;
20340;SDS011;10328;50.042;8.238;2022-09-09T07:46:38;3.45;;;2.13;;
20340;SDS011;10328;50.042;8.238;2022-09-09T07:49:05;4.88;;;1.70;;
20340;SDS011;10328;50.042;8.238;2022-09-09T07:51:33;6.18;;;2.03;;
20340;SDS011;10328;50.042;8.238;2022-09-09T07:54:02;4.95;;;2.22;;
20340;SDS011;10328;50.042;8.238;2022-09-09T07:56:32;5.13;;;2.08;;
20340;SDS011;10328;50.042;8.238;2022-09-09T07:58:59;5.60;;;2.40;;
20340;SDS011;10328;50.042;8.238;2022-09-09T08:01:27;5.15;;;1.90;;
20340;SDS011;10328;50.042;8.238;2022-09-09T08:03:59;3.33;;;1.90;;
20340;SDS011;10328;50.042;8.238;2022-09-09T08:06:28;4.35;;;2.00;;
20340;SDS011;10328;50.042;8.238;2022-09-09T08:08:56;2.95;;;1.80;;
20340;SDS011;10328;50.042;8.238;2022-09-09T08:11:23;3.92;;;1.98;;
20340;SDS011;10328;50.042;8.238;2022-09-09T08:13:51;6.25;;;2.22;;
20340;SDS011;10328;50.042;8.238;2022-09-09T08:16:22;3.92;;;2.13;;
20340;SDS011;10328;50.042;8.238;2022-09-09T08:18:50;6.47;;;2.50;;
20340;SDS011;10328;50.042;8.238;2022-09-09T08:21:18;5.38;;;2.22;;
20340;SDS011;10328;50.042;8.238;2022-09-09T08:23:55;5.05;;;2.15;;
20340;SDS011;10328;50.042;8.238;2022-09-09T08:26:24;4.18;;;2.20;;
20340;SDS011;10328;50.042;8.238;2022-09-09T08:28:53;4.32;;;2.10;;
20340;SDS011;10328;50.042;8.238;2022-09-09T08:31:21;4.47;;;2.30;;
20340;SDS011;10328;50.042;8.238;2022-09-09T08:33:55;6.47;;;2.35;;
20340;SDS011;10328;50.042;8.238;2022-09-09T08:36:23;4.63;;;2.45;;
20340;SDS011;10328;50.042;8.238;2022-09-09T08:38:52;4.25;;;2.13;;
20340;SDS011;10328;50.042;8.238;2022-09-09T08:41:32;4.50;;;2.10;;
20340;SDS011;10328;50.042;8.238;2022-09-09T08:44:08;3.75;;;1.92;;
20340;SDS011;10328;50.042;8.238;2022-09-09T08:46:51;3.70;;;2.10;;
20340;SDS011;10328;50.042;8.238;2022-09-09T08:52:16;3.72;;;2.65;;
20340;SDS011;10328;50.042;8.238;2022-09-09T08:54:48;3.63;;;2.17;;
20340;SDS011;10328;50.042;8.238;2022-09-09T08:57:21;4.07;;;1.90;;
20340;SDS011;10328;50.042;8.238;2022-09-09T08:59:52;6.28;;;2.55;;
20340;SDS011;10328;50.042;8.238;2022-09-09T09:02:23;4.60;;;2.35;;
20340;SDS011;10328;50.042;8.238;2022-09-09T09:04:56;3.80;;;2.30;;
20340;SDS011;10328;50.042;8.238;2022-09-09T09:07:45;5.35;;;2.40;;
20340;SDS011;10328;50.042;8.238;2022-09-09T09:13:15;4.47;;;1.90;;
20340;SDS011;10328;50.042;8.238;2022-09-09T09:15:44;5.25;;;2.20;;
20340;SDS011;10328;50.042;8.238;2022-09-09T09:18:14;3.35;;;1.70;;
20340;SDS011;10328;50.042;8.238;2022-09-09T09:23:22;4.80;;;1.58;;
20340;SDS011;10328;50.042;8.238;2022-09-09T09:25:52;3.85;;;1.50;;
20340;SDS011;10328;50.042;8.238;2022-09-09T09:28:24;2.60;;;1.30;;
20340;SDS011;10328;50.042;8.238;2022-09-09T09:30:59;3.78;;;1.55;;
20340;SDS011;10328;50.042;8.238;2022-09-09T09:33:29;3.05;;;1.45;;
20340;SDS011;10328;50.042;8.238;2022-09-09T09:36:02;2.78;;;1.42;;
20340;SDS011;10328;50.042;8.238;2022-09-09T09:38:29;2.35;;;1.30;;
20340;SDS011;10328;50.042;8.238;2022-09-09T09:41:15;4.07;;;1.80;;
20340;SDS011;10328;50.042;8.238;2022-09-09T09:43:52;3.33;;;1.70;;
20340;SDS011;10328;50.042;8.238;2022-09-09T09:46:21;2.58;;;1.60;;
20340;SDS011;10328;50.042;8.238;2022-09-09T09:49:00;2.20;;;1.60;;
20340;SDS011;10328;50.042;8.238;2022-09-09T09:51:31;3.25;;;1.80;;
20340;SDS011;10328;50.042;8.238;2022-09-09T09:54:09;6.32;;;1.67;;
20340;SDS011;10328;50.042;8.238;2022-09-09T09:56:42;4.85;;;1.80;;
20340;SDS011;10328;50.042;8.238;2022-09-09T09:59:23;4.43;;;2.33;;
20340;SDS011;10328;50.042;8.238;2022-09-09T10:02:17;4.05;;;1.58;;
20340;SDS011;10328;50.042;8.238;2022-09-09T10:07:31;5.55;;;1.67;;
20340;SDS011;10328;50.042;8.238;2022-09-09T10:09:59;4.22;;;2.25;;
20340;SDS011;10328;50.042;8.238;2022-09-09T10:17:47;2.35;;;1.67;;
20340;SDS011;10328;50.042;8.238;2022-09-09T10:20:41;3.20;;;1.42;;
20340;SDS011;10328;50.042;8.238;2022-09-09T10:23:16;5.18;;;1.90;;
20340;SDS011;10328;50.042;8.238;2022-09-09T10:31:31;2.88;;;1.55;;
20340;SDS011;10328;50.042;8.238;2022-09-09T10:36:38;5.15;;;1.60;;
20340;SDS011;10328;50.042;8.238;2022-09-09T10:42:06;5.35;;;1.40;;
20340;SDS011;10328;50.042;8.238;2022-09-09T10:47:31;2.38;;;1.20;;
20340;SDS011;10328;50.042;8.238;2022-09-09T10:56:26;3.72;;;1.00;;
20340;SDS011;10328;50.042;8.238;2022-09-09T10:59:03;7.70;;;1.00;;
20340;SDS011;10328;50.042;8.238;2022-09-09T11:01:42;2.50;;;1.02;;
20340;SDS011;10328;50.042;8.238;2022-09-09T11:04:13;3.05;;;1.00;;
20340;SDS011;10328;50.042;8.238;2022-09-09T11:06:47;2.38;;;0.98;;
20340;SDS011;10328;50.042;8.238;2022-09-09T11:09:17;3.42;;;1.27;;
20340;SDS011;10328;50.042;8.238;2022-09-09T11:11:51;2.00;;;0.98;;
20340;SDS011;10328;50.042;8.238;2022-09-09T11:17:08;2.58;;;0.93;;
20340;SDS011;10328;50.042;8.238;2022-09-09T11:19:39;2.38;;;1.08;;
20340;SDS011;10328;50.042;8.238;2022-09-09T11:22:18;4.00;;;0.95;;
20340;SDS011;10328;50.042;8.238;2022-09-09T11:24:59;3.38;;;0.90;;
20340;SDS011;10328;50.042;8.238;2022-09-09T11:27:38;2.10;;;0.90;;
20340;SDS011;10328;50.042;8.238;2022-09-09T11:30:20;2.63;;;1.10;;
20340;SDS011;10328;50.042;8.238;2022-09-09T11:39:17;1.20;;;0.75;;
20340;SDS011;10328;50.042;8.238;2022-09-09T11:44:39;2.33;;;0.98;;
20340;SDS011;10328;50.042;8.238;2022-09-09T11:52:41;2.65;;;0.88;;
20340;SDS011;10328;50.042;8.238;2022-09-09T11:55:24;1.83;;;1.10;;
20340;SDS011;10328;50.042;8.238;2022-09-09T11:58:14;5.68;;;1.17;;
20340;SDS011;10328;50.042;8.238;2022-09-09T12:00:47;2.47;;;1.10;;
20340;SDS011;10328;50.042;8.238;2022-09-09T12:08:45;3.00;;;1.00;;
20340;SDS011;10328;50.042;8.238;2022-09-09T12:11:23;2.78;;;0.80;;
20340;SDS011;10328;50.042;8.238;2022-09-09T12:13:53;3.80;;;1.52;;
20340;SDS011;10328;50.042;8.238;2022-09-09T12:16:28;3.78;;;1.20;;
20340;SDS011;10328;50.042;8.238;2022-09-09T12:19:30;5.40;;;1.10;;
20340;SDS011;10328;50.042;8.238;2022-09-09T12:21:58;2.20;;;1.13;;
20340;SDS011;10328;50.042;8.238;2022-09-09T12:24:52;3.08;;;1.08;;
20340;SDS011;10328;50.042;8.238;2022-09-09T12:27:33;3.05;;;1.10;;
20340;SDS011;10328;50.042;8.238;2022-09-09T12:30:14;1.75;;;1.10;;
20340;SDS011;10328;50.042;8.238;2022-09-09T12:32:41;3.67;;;1.10;;
20340;SDS011;10328;50.042;8.238;2022-09-09T12:35:11;2.35;;;0.90;;
20340;SDS011;10328;50.042;8.238;2022-09-09T12:42:52;4.45;;;1.00;;
20340;SDS011;10328;50.042;8.238;2022-09-09T12:45:19;4.25;;;1.00;;
20340;SDS011;10328;50.042;8.238;2022-09-09T12:47:56;1.08;;;0.55;;
20340;SDS011;10328;50.042;8.238;2022-09-09T12:50:25;2.00;;;0.73;;
20340;SDS011;10328;50.042;8.238;2022-09-09T12:52:56;2.75;;;0.80;;
20340;SDS011;10328;50.042;8.238;2022-09-09T12:55:31;2.63;;;0.60;;
20340;SDS011;10328;50.042;8.238;2022-09-09T12:58:00;2.53;;;0.98;;
20340;SDS011;10328;50.042;8.238;2022-09-09T13:00:30;2.65;;;0.80;;
20340;SDS011;10328;50.042;8.238;2022-09-09T13:02:57;2.25;;;0.80;;
20340;SDS011;10328;50.042;8.238;2022-09-09T13:05:33;4.43;;;0.90;;
20340;SDS011;10328;50.042;8.238;2022-09-09T13:08:02;1.60;;;0.70;;
20340;SDS011;10328;50.042;8.238;2022-09-09T13:10:29;1.50;;;0.85;;
20340;SDS011;10328;50.042;8.238;2022-09-09T13:13:22;3.53;;;0.90;;
20340;SDS011;10328;50.042;8.238;2022-09-09T13:15:50;2.65;;;0.88;;
20340;SDS011;10328;50.042;8.238;2022-09-09T13:18:18;1.77;;;0.90;;
20340;SDS011;10328;50.042;8.238;2022-09-09T13:20:48;4.57;;;0.95;;
20340;SDS011;10328;50.042;8.238;2022-09-09T13:23:15;3.22;;;0.88;;
20340;SDS011;10328;50.042;8.238;2022-09-09T13:25:52;1.42;;;0.70;;
20340;SDS011;10328;50.042;8.238;2022-09-09T13:28:23;2.10;;;0.70;;
20340;SDS011;10328;50.042;8.238;2022-09-09T13:33:38;2.42;;;0.77;;
20340;SDS011;10328;50.042;8.238;2022-09-09T13:36:08;5.63;;;2.35;;
20340;SDS011;10328;50.042;8.238;2022-09-09T13:38:37;2.17;;;1.05;;
20340;SDS011;10328;50.042;8.238;2022-09-09T13:41:06;3.85;;;0.73;;
20340;SDS011;10328;50.042;8.238;2022-09-09T13:43:38;0.60;;;0.50;;
20340;SDS011;10328;50.042;8.238;2022-09-09T13:48:57;2.20;;;0.90;;
20340;SDS011;10328;50.042;8.238;2022-09-09T13:54:06;3.55;;;0.80;;
20340;SDS011;10328;50.042;8.238;2022-09-09T13:56:36;3.45;;;0.80;;
20340;SDS011;10328;50.042;8.238;2022-09-09T13:59:03;2.45;;;0.63;;
20340;SDS011;10328;50.042;8.238;2022-09-09T14:01:31;2.67;;;0.88;;
20340;SDS011;10328;50.042;8.238;2022-09-09T14:03:59;3.38;;;0.82;;
20340;SDS011;10328;50.042;8.238;2022-09-09T14:06:25;2.45;;;0.80;;
20340;SDS011;10328;50.042;8.238;2022-09-09T14:08:51;4.00;;;0.80;;
20340;SDS011;10328;50.042;8.238;2022-09-09T14:11:18;1.27;;;0.73;;
20340;SDS011;10328;50.042;8.238;2022-09-09T14:13:45;4.10;;;0.90;;
20340;SDS011;10328;50.042;8.238;2022-09-09T14:16:11;4.32;;;0.77;;
20340;SDS011;10328;50.042;8.238;2022-09-09T14:18:37;2.20;;;0.60;;
20340;SDS011;10328;50.042;8.238;2022-09-09T14:21:04;2.22;;;0.80;;
20340;SDS011;10328;50.042;8.238;2022-09-09T14:23:31;2.72;;;0.80;;
20340;SDS011;10328;50.042;8.238;2022-09-09T14:25:58;1.90;;;0.60;;
20340;SDS011;10328;50.042;8.238;2022-09-09T14:28:24;2.50;;;0.68;;
20340;SDS011;10328;50.042;8.238;2022-09-09T14:31:11;1.65;;;0.73;;
20340;SDS011;10328;50.042;8.238;2022-09-09T14:33:39;2.92;;;1.00;;
20340;SDS011;10328;50.042;8.238;2022-09-09T14:36:06;1.48;;;0.75;;
20340;SDS011;10328;50.042;8.238;2022-09-09T14:38:33;2.83;;;1.00;;
20340;SDS011;10328;50.042;8.238;2022-09-09T14:41:01;1.65;;;0.70;;
20340;SDS011;10328;50.042;8.238;2022-09-09T14:43:30;1.48;;;0.70;;
20340;SDS011;10328;50.042;8.238;2022-09-09T14:46:05;4.30;;;0.90;;
20340;SDS011;10328;50.042;8.238;2022-09-09T14:48:32;2.75;;;0.77;;
20340;SDS011;10328;50.042;8.238;2022-09-09T14:51:06;4.15;;;0.90;;
20340;SDS011;10328;50.042;8.238;2022-09-09T14:53:34;2.30;;;0.90;;
20340;SDS011;10328;50.042;8.238;2022-09-09T14:56:07;4.38;;;0.90;;
20340;SDS011;10328;50.042;8.238;2022-09-09T14:58:36;2.25;;;0.98;;
20340;SDS011;10328;50.042;8.238;2022-09-09T15:01:04;1.35;;;0.73;;
20340;SDS011;10328;50.042;8.238;2022-09-09T15:03:32;1.30;;;1.10;;
20340;SDS011;10328;50.042;8.238;2022-09-09T15:06:04;2.97;;;0.95;;
20340;SDS011;10328;50.042;8.238;2022-09-09T15:08:35;2.33;;;0.73;;
20340;SDS011;10328;50.042;8.238;2022-09-09T15:11:08;1.30;;;0.80;;
20340;SDS011;10328;50.042;8.238;2022-09-09T15:13:35;1.05;;;0.80;;
20340;SDS011;10328;50.042;8.238;2022-09-09T15:16:04;4.30;;;1.10;;
20340;SDS011;10328;50.042;8.238;2022-09-09T15:18:32;2.60;;;0.90;;
20340;SDS011;10328;50.042;8.238;2022-09-09T15:20:59;2.17;;;0.70;;
20340;SDS011;10328;50.042;8.238;2022-09-09T15:23:27;3.20;;;0.90;;
20340;SDS011;10328;50.042;8.238;2022-09-09T15:25:54;5.47;;;1.00;;
20340;SDS011;10328;50.042;8.238;2022-09-09T15:28:21;5.47;;;1.15;;
20340;SDS011;10328;50.042;8.238;2022-09-09T15:30:51;5.65;;;0.80;;
20340;SDS011;10328;50.042;8.238;2022-09-09T15:33:19;2.50;;;0.80;;
20340;SDS011;10328;50.042;8.238;2022-09-09T15:35:46;1.50;;;0.77;;
20340;SDS011;10328;50.042;8.238;2022-09-09T15:38:13;1.95;;;0.90;;
20340;SDS011;10328;50.042;8.238;2022-09-09T15:40:42;2.67;;;1.10;;
20340;SDS011;10328;50.042;8.238;2022-09-09T15:43:09;2.15;;;0.95;;
20340;SDS011;10328;50.042;8.238;2022-09-09T15:45:36;3.17;;;0.85;;
20340;SDS011;10328;50.042;8.238;2022-09-09T15:48:03;1.88;;;1.00;;
20340;SDS011;10328;50.042;8.238;2022-09-09T15:50:30;3.13;;;0.80;;
20340;SDS011;10328;50.042;8.238;2022-09-09T15:52:58;1.98;;;0.80;;
20340;SDS011;10328;50.042;8.238;2022-09-09T15:55:25;2.53;;;0.98;;
20340;SDS011;10328;50.042;8.238;2022-09-09T15:57:51;1.98;;;0.80;;
20340;SDS011;10328;50.042;8.238;2022-09-09T16:00:21;2.85;;;1.20;;
20340;SDS011;10328;50.042;8.238;2022-09-09T16:02:48;1.80;;;0.80;;
20340;SDS011;10328;50.042;8.238;2022-09-09T16:05:15;4.03;;;1.15;;
20340;SDS011;10328;50.042;8.238;2022-09-09T16:07:41;4.38;;;0.70;;
20340;SDS011;10328;50.042;8.238;2022-09-09T16:10:08;2.50;;;0.85;;
20340;SDS011;10328;50.042;8.238;2022-09-09T16:12:35;1.95;;;1.10;;
20340;SDS011;10328;50.042;8.238;2022-09-09T16:15:01;3.97;;;1.10;;
20340;SDS011;10328;50.042;8.238;2022-09-09T16:17:28;2.53;;;1.50;;
20340;SDS011;10328;50.042;8.238;2022-09-09T16:19:54;3.47;;;0.90;;
20340;SDS011;10328;50.042;8.238;2022-09-09T16:22:21;2.47;;;1.00;;
20340;SDS011;10328;50.042;8.238;2022-09-09T16:24:48;2.45;;;1.40;;
20340;SDS011;10328;50.042;8.238;2022-09-09T16:27:14;2.25;;;1.23;;
20340;SDS011;10328;50.042;8.238;2022-09-09T16:29:40;3.58;;;1.40;;
20340;SDS011;10328;50.042;8.238;2022-09-09T16:32:07;1.73;;;1.00;;
20340;SDS011;10328;50.042;8.238;2022-09-09T16:34:34;2.50;;;1.20;;
20340;SDS011;10328;50.042;8.238;2022-09-09T16:37:00;4.13;;;1.00;;
20340;SDS011;10328;50.042;8.238;2022-09-09T16:39:28;1.50;;;0.93;;
20340;SDS011;10328;50.042;8.238;2022-09-09T16:41:54;3.17;;;1.15;;
20340;SDS011;10328;50.042;8.238;2022-09-09T16:44:20;2.45;;;1.25;;
20340;SDS011;10328;50.042;8.238;2022-09-09T16:46:47;6.60;;;1.30;;
20340;SDS011;10328;50.042;8.238;2022-09-09T16:49:14;3.20;;;1.40;;
20340;SDS011;10328;50.042;8.238;2022-09-09T16:51:42;2.45;;;1.23;;